createdAt,value
2019-03-03T00:00:40.808Z,18.57
2019-03-03T00:03:09.526Z,25.77
2019-03-03T00:05:38.243Z,22.33
2019-03-03T00:08:07.061Z,19.23
2019-03-03T00:10:35.883Z,19.47
2019-03-03T00:13:04.600Z,18.23
2019-03-03T00:15:33.472Z,16.50
2019-03-03T00:18:02.200Z,18.73
2019-03-03T00:20:31.727Z,20.03
2019-03-03T00:23:00.561Z,24.50
2019-03-03T00:25:29.278Z,22.07
2019-03-03T00:27:57.999Z,19.53
2019-03-03T00:30:26.770Z,20.63
2019-03-03T00:32:55.501Z,20.70
2019-03-03T00:35:24.209Z,22.37
2019-03-03T00:38:11.069Z,23.40
2019-03-03T00:40:47.118Z,23.63
2019-03-03T00:43:33.823Z,21.57
2019-03-03T00:46:04.130Z,22.70
2019-03-03T00:48:51.337Z,22.10
2019-03-03T00:51:21.623Z,23.20
2019-03-03T00:53:58.016Z,21.20
2019-03-03T00:56:31.047Z,20.67
2019-03-03T00:59:07.409Z,27.60
2019-03-03T01:01:38.403Z,24.30
2019-03-03T01:04:08.702Z,20.40
2019-03-03T01:06:41.922Z,22.43
2019-03-03T01:09:39.987Z,21.53
2019-03-03T01:12:13.125Z,22.33
2019-03-03T01:14:59.579Z,23.63
2019-03-03T01:17:29.914Z,19.67
2019-03-03T01:20:00.235Z,21.37
2019-03-03T01:22:33.251Z,20.83
2019-03-03T01:25:02.134Z,22.97
2019-03-03T01:27:30.843Z,26.30
2019-03-03T01:29:59.568Z,24.27
2019-03-03T01:32:28.451Z,22.30
2019-03-03T01:34:57.668Z,23.63
2019-03-03T01:37:26.385Z,24.97
2019-03-03T01:39:58.343Z,23.20
2019-03-03T01:42:27.072Z,20.63
2019-03-03T01:44:55.796Z,19.80
2019-03-03T01:47:24.673Z,21.53
2019-03-03T01:49:53.397Z,17.40
2019-03-03T01:52:22.111Z,20.63
2019-03-03T01:54:50.891Z,20.40
2019-03-03T01:57:19.611Z,24.50
2019-03-03T01:59:48.414Z,20.87
2019-03-03T02:02:17.201Z,21.07
2019-03-03T02:04:45.927Z,27.70
2019-03-03T02:07:14.685Z,25.30
2019-03-03T02:09:43.655Z,36.30
2019-03-03T02:12:12.376Z,30.17
2019-03-03T02:14:41.098Z,22.70
2019-03-03T02:17:11.455Z,22.57
2019-03-03T02:19:40.178Z,24.00
2019-03-03T02:22:09.000Z,26.27
2019-03-03T02:24:37.947Z,27.43
2019-03-03T02:27:06.660Z,28.60
2019-03-03T02:29:35.481Z,27.60
2019-03-03T02:32:05.579Z,27.00
2019-03-03T02:34:34.297Z,26.93
2019-03-03T02:37:03.021Z,23.23
2019-03-03T02:39:31.828Z,24.80
2019-03-03T02:42:00.556Z,22.90
2019-03-03T02:44:29.274Z,27.20
2019-03-03T02:46:58.047Z,22.37
2019-03-03T02:49:26.769Z,20.27
2019-03-03T02:51:55.494Z,25.10
2019-03-03T02:54:24.372Z,21.37
2019-03-03T02:56:53.089Z,26.13
2019-03-03T02:59:21.818Z,24.97
2019-03-03T03:01:52.361Z,21.90
2019-03-03T03:04:23.120Z,21.63
2019-03-03T03:06:53.411Z,23.30
2019-03-03T03:09:23.788Z,24.30
2019-03-03T03:12:02.928Z,27.37
2019-03-03T03:14:33.275Z,25.43
2019-03-03T03:17:09.850Z,25.63
2019-03-03T03:19:40.576Z,24.53
2019-03-03T03:22:10.877Z,22.57
2019-03-03T03:24:43.915Z,21.13
2019-03-03T03:27:23.505Z,20.83
2019-03-03T03:29:53.799Z,27.53
2019-03-03T03:32:36.317Z,25.03
2019-03-03T03:35:14.613Z,25.03
2019-03-03T03:37:45.061Z,23.20
2019-03-03T03:40:22.027Z,22.07
2019-03-03T03:43:01.718Z,21.70
2019-03-03T03:45:43.805Z,23.27
2019-03-03T03:48:20.360Z,26.37
2019-03-03T03:50:50.614Z,26.93
2019-03-03T03:53:26.958Z,26.70
2019-03-03T03:56:03.225Z,24.03
2019-03-03T03:58:33.638Z,23.40
2019-03-03T04:01:03.893Z,20.00
2019-03-03T04:03:46.530Z,24.73
2019-03-03T04:06:16.785Z,45.07
2019-03-03T04:09:03.438Z,29.47
2019-03-03T04:11:33.685Z,26.37
2019-03-03T04:14:20.374Z,24.77
2019-03-03T04:16:53.568Z,26.23
2019-03-03T04:19:23.837Z,27.07
2019-03-03T04:21:54.241Z,34.27
2019-03-03T04:24:27.203Z,43.17
2019-03-03T04:27:14.011Z,33.33
2019-03-03T04:29:44.415Z,31.03
2019-03-03T04:32:17.618Z,30.67
2019-03-03T04:35:05.936Z,30.50
2019-03-03T04:37:42.859Z,30.27
2019-03-03T04:40:13.267Z,32.57
2019-03-03T04:42:49.726Z,34.07
2019-03-03T04:45:35.028Z,31.63
2019-03-03T04:48:14.162Z,34.67
2019-03-03T04:51:01.028Z,26.37
2019-03-03T04:53:47.505Z,30.40
2019-03-03T04:56:33.075Z,29.70
2019-03-03T04:59:03.324Z,25.63
2019-03-03T05:01:45.995Z,32.67
2019-03-03T05:04:34.322Z,25.73
2019-03-03T05:07:04.611Z,30.50
2019-03-03T05:09:34.867Z,26.67
2019-03-03T05:12:24.243Z,22.83
2019-03-03T05:14:54.491Z,37.87
2019-03-03T05:17:41.184Z,28.63
2019-03-03T05:20:11.835Z,25.40
2019-03-03T05:22:40.523Z,31.80
2019-03-03T05:25:09.262Z,24.90
2019-03-03T05:27:39.039Z,29.57
2019-03-03T05:30:10.792Z,34.10
2019-03-03T05:32:39.580Z,42.07
2019-03-03T05:35:09.168Z,28.97
2019-03-03T05:37:37.958Z,22.67
2019-03-03T05:40:08.290Z,21.80
2019-03-03T05:42:36.969Z,28.07
2019-03-03T05:45:07.048Z,18.33
2019-03-03T05:47:36.098Z,23.37
2019-03-03T05:50:06.084Z,20.87
2019-03-03T05:52:34.762Z,25.07
2019-03-03T05:55:03.792Z,19.93
2019-03-03T05:57:32.467Z,23.23
2019-03-03T06:00:01.151Z,21.97
2019-03-03T06:02:30.874Z,27.93
2019-03-03T06:04:59.548Z,20.23
2019-03-03T06:07:28.226Z,18.40
2019-03-03T06:09:57.154Z,24.43
2019-03-03T06:12:25.857Z,18.50
2019-03-03T06:14:54.566Z,21.13
2019-03-03T06:17:23.397Z,22.80
2019-03-03T06:19:52.075Z,18.43
2019-03-03T06:22:20.759Z,20.73
2019-03-03T06:24:49.588Z,23.07
2019-03-03T06:27:18.265Z,20.77
2019-03-03T06:29:46.949Z,22.53
2019-03-03T06:32:15.698Z,24.47
2019-03-03T06:34:44.444Z,20.07
2019-03-03T06:37:12.056Z,20.27
2019-03-03T06:39:39.808Z,24.27
2019-03-03T06:42:07.442Z,27.77
2019-03-03T06:44:35.079Z,20.60
2019-03-03T06:47:02.874Z,18.50
2019-03-03T06:49:30.504Z,25.23
2019-03-03T06:51:58.130Z,18.37
2019-03-03T06:54:26.113Z,20.17
2019-03-03T06:56:53.750Z,18.97
2019-03-03T06:59:21.382Z,18.40
2019-03-03T07:01:49.265Z,22.57
2019-03-03T07:04:16.902Z,16.57
2019-03-03T07:06:44.525Z,20.40
2019-03-03T07:09:12.297Z,22.57
2019-03-03T07:11:39.918Z,18.43
2019-03-03T07:14:07.555Z,22.40
2019-03-03T07:16:35.395Z,18.70
2019-03-03T07:19:03.029Z,19.53
2019-03-03T07:21:30.659Z,18.37
2019-03-03T07:23:58.334Z,18.33
2019-03-03T07:26:25.963Z,23.03
2019-03-03T07:28:53.585Z,28.97
2019-03-03T07:31:21.367Z,20.13
2019-03-03T07:33:50.293Z,25.27
2019-03-03T07:36:17.994Z,23.97
2019-03-03T07:38:45.860Z,27.13
2019-03-03T07:41:13.482Z,22.83
2019-03-03T07:43:41.115Z,23.97
2019-03-03T07:46:08.789Z,24.40
2019-03-03T07:48:36.440Z,24.77
2019-03-03T07:51:04.041Z,33.13
2019-03-03T07:53:31.850Z,25.90
2019-03-03T07:55:59.480Z,20.43
2019-03-03T07:58:27.114Z,19.33
2019-03-03T08:00:56.579Z,23.17
2019-03-03T08:03:24.207Z,25.13
2019-03-03T08:05:51.839Z,27.93
2019-03-03T08:08:19.689Z,33.20
2019-03-03T08:10:47.327Z,22.40
2019-03-03T08:13:14.959Z,21.73
2019-03-03T08:15:42.639Z,23.37
2019-03-03T08:18:10.265Z,24.33
2019-03-03T08:20:37.889Z,23.87
2019-03-03T08:23:05.675Z,24.47
2019-03-03T08:25:33.301Z,33.90
2019-03-03T08:28:00.934Z,26.00
2019-03-03T08:30:28.610Z,30.53
2019-03-03T08:32:56.229Z,23.50
2019-03-03T08:35:25.335Z,25.10
2019-03-03T08:37:53.105Z,26.20
2019-03-03T08:40:20.740Z,20.60
2019-03-03T08:42:49.934Z,28.00
2019-03-03T08:45:25.151Z,34.10
2019-03-03T08:48:10.915Z,28.03
2019-03-03T08:50:52.351Z,39.43
2019-03-03T08:53:33.294Z,28.50
2019-03-03T08:56:02.526Z,27.00
2019-03-03T08:58:46.990Z,32.10
2019-03-03T09:01:16.334Z,28.23
2019-03-03T09:03:45.530Z,34.67
2019-03-03T09:06:17.881Z,29.63
2019-03-03T09:08:47.155Z,31.77
2019-03-03T09:11:34.384Z,33.03
2019-03-03T09:14:03.791Z,37.67
2019-03-03T09:16:42.322Z,32.70
2019-03-03T09:19:14.551Z,28.27
2019-03-03T09:21:43.769Z,33.70
2019-03-03T09:24:29.755Z,32.20
2019-03-03T09:27:15.129Z,34.33
2019-03-03T09:30:00.804Z,27.87
2019-03-03T09:32:36.172Z,32.33
2019-03-03T09:35:22.378Z,29.00
2019-03-03T09:38:00.139Z,47.10
2019-03-03T09:40:29.434Z,35.53
2019-03-03T09:43:03.808Z,45.63
2019-03-03T09:45:42.145Z,38.10
2019-03-03T09:48:11.354Z,32.07
2019-03-03T09:50:40.566Z,31.43
2019-03-03T09:53:23.050Z,39.50
2019-03-03T09:55:54.763Z,52.40
2019-03-03T09:58:27.350Z,32.43
2019-03-03T10:01:02.501Z,30.20
2019-03-03T10:03:37.995Z,33.97
2019-03-03T10:06:25.116Z,36.63
2019-03-03T10:09:09.515Z,41.43
2019-03-03T10:11:41.551Z,35.30
2019-03-03T10:14:14.067Z,39.70
2019-03-03T10:16:43.311Z,39.83
2019-03-03T10:19:12.541Z,35.33
2019-03-03T10:21:44.883Z,39.90
2019-03-03T10:24:30.758Z,55.60
2019-03-03T10:27:05.879Z,103.90
2019-03-03T10:29:37.741Z,58.67
2019-03-03T10:32:09.750Z,49.27
2019-03-03T10:34:38.989Z,44.30
2019-03-03T10:37:23.587Z,80.80
2019-03-03T10:39:55.519Z,45.40
2019-03-03T10:42:27.981Z,34.87
2019-03-03T10:45:13.888Z,94.83
2019-03-03T10:47:52.255Z,72.77
2019-03-03T10:50:30.754Z,34.40
2019-03-03T10:53:00.146Z,65.10
2019-03-03T10:55:32.122Z,37.70
2019-03-03T10:58:01.393Z,34.90
2019-03-03T11:00:30.802Z,38.63
2019-03-03T11:03:00.146Z,31.97
2019-03-03T11:05:47.716Z,73.47
2019-03-03T11:08:25.646Z,40.43
2019-03-03T11:10:57.757Z,41.63
2019-03-03T11:13:25.815Z,32.37
2019-03-03T11:16:04.235Z,39.20
2019-03-03T11:18:33.489Z,43.87
2019-03-03T11:21:08.777Z,32.87
2019-03-03T11:23:38.030Z,31.77
2019-03-03T11:26:07.291Z,32.70
2019-03-03T11:28:36.707Z,33.80
2019-03-03T11:31:18.342Z,36.87
2019-03-03T11:33:56.390Z,37.57
2019-03-03T11:36:28.629Z,34.37
2019-03-03T11:39:07.187Z,33.27
2019-03-03T11:41:45.623Z,38.13
2019-03-03T11:44:29.962Z,31.23
2019-03-03T11:46:59.207Z,39.27
2019-03-03T11:49:37.695Z,32.73
2019-03-03T11:52:10.347Z,33.40
2019-03-03T11:54:39.595Z,34.10
2019-03-03T11:57:17.513Z,36.13
2019-03-03T11:59:49.444Z,33.03
2019-03-03T12:02:21.852Z,34.80
2019-03-03T12:05:06.504Z,30.53
2019-03-03T12:07:35.914Z,36.03
2019-03-03T12:10:05.763Z,35.03
2019-03-03T12:12:53.503Z,30.63
2019-03-03T12:15:28.667Z,37.10
2019-03-03T12:18:00.733Z,37.03
2019-03-03T12:20:46.784Z,34.63
2019-03-03T12:23:25.486Z,30.10
2019-03-03T12:25:57.175Z,39.13
2019-03-03T12:28:26.422Z,35.33
2019-03-03T12:30:55.714Z,34.07
2019-03-03T12:33:40.386Z,34.20
2019-03-03T12:36:09.692Z,34.00
2019-03-03T12:38:38.931Z,32.60
2019-03-03T12:41:11.034Z,32.87
2019-03-03T12:43:40.510Z,33.90
2019-03-03T12:46:09.776Z,31.20
2019-03-03T12:48:39.022Z,33.67
2019-03-03T12:51:08.310Z,29.93
2019-03-03T12:53:40.255Z,32.63
2019-03-03T12:56:24.370Z,32.83
2019-03-03T12:58:53.626Z,32.97
2019-03-03T13:01:29.294Z,34.03
2019-03-03T13:04:04.784Z,27.20
2019-03-03T13:06:49.167Z,26.87
2019-03-03T13:09:18.541Z,32.20
2019-03-03T13:11:54.135Z,29.47
2019-03-03T13:14:26.376Z,28.63
2019-03-03T13:17:04.614Z,23.93
2019-03-03T13:19:51.866Z,22.63
2019-03-03T13:22:37.654Z,27.20
2019-03-03T13:25:07.998Z,24.73
2019-03-03T13:27:37.242Z,26.33
2019-03-03T13:30:27.340Z,37.77
2019-03-03T13:32:56.583Z,25.30
2019-03-03T13:35:32.095Z,25.37
2019-03-03T13:38:16.498Z,33.97
2019-03-03T13:40:48.328Z,41.47
2019-03-03T13:43:17.759Z,34.53
2019-03-03T13:45:49.878Z,29.87
2019-03-03T13:48:17.810Z,32.77
2019-03-03T13:50:45.478Z,28.10
2019-03-03T13:53:13.151Z,23.93
2019-03-03T13:55:40.894Z,32.90
2019-03-03T13:58:08.568Z,26.03
2019-03-03T14:00:36.238Z,26.43
2019-03-03T14:03:04.379Z,29.47
2019-03-03T14:05:32.048Z,25.40
2019-03-03T14:07:59.719Z,27.40
2019-03-03T14:10:27.475Z,25.20
2019-03-03T14:12:55.146Z,29.13
2019-03-03T14:15:22.838Z,29.90
2019-03-03T14:17:50.546Z,28.90
2019-03-03T14:20:19.682Z,44.47
2019-03-03T14:22:47.458Z,39.87
2019-03-03T14:25:15.554Z,31.97
2019-03-03T14:27:45.292Z,36.63
2019-03-03T14:30:43.500Z,25.73
2019-03-03T14:33:14.596Z,26.27
2019-03-03T14:35:48.095Z,25.50
2019-03-03T14:38:37.991Z,37.70
2019-03-03T14:41:03.379Z,39.20
2019-03-03T14:43:31.045Z,31.90
2019-03-03T14:46:01.751Z,54.70
2019-03-03T14:48:31.871Z,40.50
2019-03-03T14:51:03.175Z,48.43
2019-03-03T14:53:32.333Z,34.20
2019-03-03T14:56:01.305Z,51.43
2019-03-03T14:58:46.160Z,50.40
2019-03-03T15:01:21.026Z,60.40
2019-03-03T15:03:50.292Z,73.10
2019-03-03T15:06:24.436Z,41.63
2019-03-03T15:08:49.093Z,71.37
2019-03-03T15:11:16.763Z,92.47
2019-03-03T15:13:44.443Z,36.17
2019-03-03T15:16:21.918Z,34.73
2019-03-03T15:18:49.575Z,33.00
2019-03-03T15:21:25.157Z,52.57
2019-03-03T15:23:48.068Z,27.47
2019-03-03T15:26:41.059Z,22.97
2019-03-03T15:29:08.820Z,29.17
2019-03-03T15:31:37.934Z,44.40
2019-03-03T15:34:05.754Z,42.07
2019-03-03T15:36:33.495Z,43.50
2019-03-03T15:39:01.158Z,65.33
2019-03-03T15:41:28.826Z,74.10
2019-03-03T15:43:56.667Z,68.50
2019-03-03T15:46:26.158Z,52.00
2019-03-03T15:48:53.675Z,75.87
2019-03-03T15:51:21.514Z,107.40
2019-03-03T15:53:49.293Z,87.93
2019-03-03T15:56:16.968Z,75.20
2019-03-03T15:58:44.786Z,85.13
2019-03-03T16:01:13.662Z,86.17
2019-03-03T16:03:41.326Z,92.40
2019-03-03T16:06:09.166Z,78.73
2019-03-03T16:08:36.842Z,78.70
2019-03-03T16:11:04.519Z,59.30
2019-03-03T16:13:32.243Z,63.03
2019-03-03T16:15:59.914Z,87.67
2019-03-03T16:18:27.586Z,135.20
2019-03-03T16:20:55.359Z,136.67
2019-03-03T16:23:23.038Z,128.90
2019-03-03T16:25:50.730Z,153.30
2019-03-03T16:28:19.283Z,262.93
2019-03-03T16:30:46.959Z,209.33
2019-03-03T16:33:20.448Z,110.93
2019-03-03T16:35:44.182Z,193.57
2019-03-03T16:38:11.858Z,387.43
2019-03-03T16:40:40.090Z,325.40
2019-03-03T16:43:07.982Z,349.07
2019-03-03T16:45:35.646Z,686.13
2019-03-03T16:48:03.322Z,573.47
2019-03-03T16:50:31.164Z,646.30
2019-03-03T16:52:58.987Z,591.27
2019-03-03T16:55:26.667Z,317.60
2019-03-03T16:57:54.528Z,374.77
2019-03-03T17:00:25.590Z,309.70
2019-03-03T17:02:53.275Z,263.73
2019-03-03T17:05:24.312Z,150.00
2019-03-03T17:07:51.980Z,91.37
2019-03-03T17:10:19.661Z,100.57
2019-03-03T17:12:47.367Z,98.07
2019-03-03T17:15:21.990Z,113.27
2019-03-03T17:17:49.678Z,121.73
2019-03-03T17:20:17.709Z,354.63
2019-03-03T17:22:45.386Z,371.93
2019-03-03T17:25:14.150Z,150.30
2019-03-03T17:27:41.974Z,31.47
2019-03-03T17:30:13.796Z,25.00
2019-03-03T17:32:41.465Z,21.00
2019-03-03T17:35:09.177Z,25.67
2019-03-03T17:37:36.841Z,25.40
2019-03-03T17:40:05.987Z,23.40
2019-03-03T17:42:33.726Z,23.33
2019-03-03T17:45:01.506Z,26.03
2019-03-03T17:47:29.191Z,24.33
2019-03-03T17:49:58.502Z,23.17
2019-03-03T17:52:26.188Z,24.67
2019-03-03T17:54:53.861Z,22.23
2019-03-03T17:57:21.569Z,24.20
2019-03-03T17:59:49.240Z,24.47
2019-03-03T18:02:18.826Z,26.03
2019-03-03T18:04:46.370Z,23.33
2019-03-03T18:07:14.090Z,23.80
2019-03-03T18:09:41.762Z,24.93
2019-03-03T18:12:09.986Z,24.63
2019-03-03T18:14:37.662Z,24.27
2019-03-03T18:17:05.344Z,24.23
2019-03-03T18:19:33.169Z,31.03
2019-03-03T18:22:00.890Z,24.10
2019-03-03T18:24:28.562Z,27.97
2019-03-03T18:26:56.375Z,27.83
2019-03-03T18:29:24.050Z,24.73
2019-03-03T18:31:51.722Z,26.27
2019-03-03T18:34:19.671Z,27.17
2019-03-03T18:36:47.310Z,24.60
2019-03-03T18:39:14.994Z,25.87
2019-03-03T18:41:42.700Z,32.03
2019-03-03T18:44:13.716Z,28.23
2019-03-03T18:46:41.761Z,28.07
2019-03-03T18:49:10.719Z,26.90
2019-03-03T18:51:38.388Z,31.57
2019-03-03T18:54:06.139Z,26.37
2019-03-03T18:56:34.729Z,27.47
2019-03-03T18:59:02.461Z,24.47
2019-03-03T19:01:30.079Z,27.00
2019-03-03T19:03:58.134Z,25.80
2019-03-03T19:06:25.807Z,28.77
2019-03-03T19:08:53.480Z,28.87
2019-03-03T19:11:21.560Z,37.83
2019-03-03T19:13:51.353Z,48.43
2019-03-03T19:16:19.001Z,49.47
2019-03-03T19:18:46.857Z,107.50
2019-03-03T19:21:14.494Z,70.10
2019-03-03T19:23:42.159Z,72.37
2019-03-03T19:26:09.915Z,71.70
2019-03-03T19:28:37.583Z,62.77
2019-03-03T19:31:06.975Z,41.23
2019-03-03T19:33:39.038Z,43.03
2019-03-03T19:36:06.712Z,37.00
2019-03-03T19:38:37.331Z,35.07
2019-03-03T19:41:05.147Z,40.77
2019-03-03T19:43:34.406Z,39.67
2019-03-03T19:46:03.544Z,37.77
2019-03-03T19:48:31.430Z,39.93
2019-03-03T19:50:59.072Z,40.87
2019-03-03T19:53:26.738Z,33.47
2019-03-03T19:55:54.642Z,39.43
2019-03-03T19:58:22.593Z,34.83
2019-03-03T20:00:50.461Z,34.27
2019-03-03T20:03:18.471Z,32.83
2019-03-03T20:05:46.145Z,31.07
2019-03-03T20:08:13.819Z,45.43
2019-03-03T20:10:41.654Z,34.00
2019-03-03T20:13:09.953Z,33.30
2019-03-03T20:15:37.780Z,38.43
2019-03-03T20:18:06.718Z,42.77
2019-03-03T20:20:34.386Z,43.17
2019-03-03T20:23:02.070Z,43.13
2019-03-03T20:25:29.898Z,41.37
2019-03-03T20:27:57.570Z,36.47
2019-03-03T20:30:25.743Z,39.80
2019-03-03T20:32:53.754Z,36.93
2019-03-03T20:35:21.527Z,37.27
2019-03-03T20:37:49.202Z,40.17
2019-03-03T20:40:17.745Z,43.97
2019-03-03T20:42:45.402Z,45.47
2019-03-03T20:45:29.476Z,38.13
2019-03-03T20:47:57.142Z,38.40
2019-03-03T20:50:24.820Z,34.73
2019-03-03T20:52:52.739Z,31.93
2019-03-03T20:55:21.112Z,29.83
2019-03-03T20:57:48.802Z,31.20
2019-03-03T21:00:24.015Z,29.43
2019-03-03T21:02:51.684Z,31.73
2019-03-03T21:05:19.359Z,41.20
2019-03-03T21:07:51.351Z,47.50
2019-03-03T21:10:26.362Z,57.70
2019-03-03T21:12:54.236Z,65.63
2019-03-03T21:15:22.013Z,32.67
2019-03-03T21:17:49.677Z,27.00
2019-03-03T21:20:18.396Z,26.77
2019-03-03T21:22:46.080Z,25.57
2019-03-03T21:25:14.339Z,28.60
2019-03-03T21:27:42.062Z,26.63
2019-03-03T21:30:13.938Z,28.67
2019-03-03T21:32:41.607Z,36.60
2019-03-03T21:35:10.731Z,31.73
2019-03-03T21:37:38.398Z,30.63
2019-03-03T21:40:07.558Z,29.73
2019-03-03T21:42:35.284Z,36.43
2019-03-03T21:45:03.160Z,28.10
2019-03-03T21:47:30.834Z,31.97
2019-03-03T21:49:58.682Z,25.50
2019-03-03T21:52:26.362Z,27.77
2019-03-03T21:54:54.038Z,30.83
2019-03-03T21:57:21.764Z,29.20
2019-03-03T21:59:49.435Z,28.60
2019-03-03T22:02:17.122Z,30.17
2019-03-03T22:04:44.961Z,27.83
2019-03-03T22:07:13.901Z,29.00
2019-03-03T22:09:41.605Z,26.60
2019-03-03T22:12:09.359Z,24.97
2019-03-03T22:14:39.734Z,23.40
2019-03-03T22:17:08.460Z,19.60
2019-03-03T22:19:36.326Z,22.97
2019-03-03T22:22:04.007Z,23.83
2019-03-03T22:24:31.666Z,22.27
2019-03-03T22:26:59.394Z,23.20
2019-03-03T22:29:28.260Z,25.87
2019-03-03T22:31:57.410Z,23.73
2019-03-03T22:34:25.448Z,28.67
2019-03-03T22:36:53.107Z,25.70
2019-03-03T22:39:20.778Z,26.10
2019-03-03T22:41:48.627Z,24.13
2019-03-03T22:44:16.306Z,24.53
2019-03-03T22:46:44.007Z,24.90
2019-03-03T22:49:14.688Z,25.03
2019-03-03T22:51:42.361Z,24.00
2019-03-03T22:54:10.026Z,26.30
2019-03-03T22:56:37.853Z,23.43
2019-03-03T22:59:05.522Z,25.37
2019-03-03T23:01:33.295Z,24.97
2019-03-03T23:04:08.578Z,26.50
2019-03-03T23:06:37.718Z,29.93
2019-03-03T23:09:12.902Z,29.50
2019-03-03T23:11:51.229Z,30.63
2019-03-03T23:14:26.499Z,30.90
2019-03-03T23:17:01.782Z,30.00
2019-03-03T23:19:46.283Z,37.97
2019-03-03T23:22:15.846Z,34.00
2019-03-03T23:25:02.119Z,29.17
2019-03-03T23:27:29.794Z,34.30
2019-03-03T23:29:57.488Z,43.93
2019-03-03T23:32:25.277Z,38.13
2019-03-03T23:34:53.050Z,33.63
2019-03-03T23:37:20.705Z,29.57
2019-03-03T23:39:48.710Z,42.07
2019-03-03T23:42:16.375Z,43.80
2019-03-03T23:44:44.041Z,38.53
2019-03-03T23:47:11.862Z,31.97
2019-03-03T23:49:39.530Z,29.40
2019-03-03T23:52:07.198Z,29.57
2019-03-03T23:54:34.920Z,26.23
2019-03-03T23:57:02.590Z,33.30
2019-03-03T23:59:30.262Z,30.90
